createdAt,value
2022-10-13T00:02:41.874Z,100929.94
2022-10-13T00:07:44.710Z,100918.09
2022-10-13T00:12:47.600Z,100919.38
2022-10-13T00:17:51.021Z,100921.34
2022-10-13T00:22:54.142Z,100921.50
2022-10-13T00:27:56.959Z,100922.75
2022-10-13T00:32:59.748Z,100930.88
2022-10-13T00:38:02.306Z,100918.34
2022-10-13T00:43:14.487Z,100917.22
2022-10-13T00:48:23.981Z,100908.88
2022-10-13T00:53:33.169Z,100906.50
2022-10-13T00:58:39.178Z,100912.22
2022-10-13T01:03:41.939Z,100900.91
2022-10-13T01:08:44.794Z,100903.00
2022-10-13T01:13:54.775Z,100901.19
2022-10-13T01:19:35.024Z,100898.69
2022-10-13T01:24:43.388Z,100907.63
2022-10-13T01:30:03.825Z,100906.22
2022-10-13T01:35:14.219Z,100903.16
2022-10-13T01:40:29.195Z,100904.28
2022-10-13T01:45:38.506Z,100898.31
2022-10-13T01:50:41.595Z,100893.00
2022-10-13T01:55:52.984Z,100888.22
2022-10-13T02:01:18.551Z,100892.13
2022-10-13T02:06:31.250Z,100882.78
2022-10-13T02:11:34.131Z,100879.13
2022-10-13T02:16:41.126Z,100884.44
2022-10-13T02:21:45.274Z,100888.38
2022-10-13T02:26:48.306Z,100890.19
2022-10-13T02:31:51.242Z,100896.22
2022-10-13T02:36:54.064Z,100887.59
2022-10-13T02:41:56.960Z,100895.94
2022-10-13T02:47:00.172Z,100895.38
2022-10-13T02:52:03.167Z,100900.56
2022-10-13T02:57:05.919Z,100903.75
2022-10-13T03:02:08.685Z,100902.50
2022-10-13T03:07:11.791Z,100907.94
2022-10-13T03:12:14.630Z,100904.28
2022-10-13T03:17:17.581Z,100898.47
2022-10-13T03:22:20.835Z,100894.13
2022-10-13T03:27:24.104Z,100899.16
2022-10-13T03:32:26.892Z,100893.16
2022-10-13T03:37:30.743Z,100885.22
2022-10-13T03:42:35.962Z,100889.66
2022-10-13T03:47:38.726Z,100885.59
2022-10-13T03:52:41.501Z,100883.63
2022-10-13T03:57:44.253Z,100880.38
2022-10-13T04:02:49.539Z,100885.69
2022-10-13T04:07:52.319Z,100879.69
2022-10-13T04:12:55.087Z,100878.28
2022-10-13T04:17:57.827Z,100862.69
2022-10-13T04:23:01.109Z,100873.81
2022-10-13T04:28:05.759Z,100879.38
2022-10-13T04:33:08.727Z,100882.88
2022-10-13T04:38:11.479Z,100867.41
2022-10-13T04:43:15.924Z,100877.97
2022-10-13T04:48:18.730Z,100869.31
2022-10-13T04:53:22.645Z,100876.31
2022-10-13T04:58:25.633Z,100877.25
2022-10-13T05:03:28.548Z,100897.50
2022-10-13T05:08:33.196Z,100895.78
2022-10-13T05:13:36.487Z,100883.53
2022-10-13T05:18:39.683Z,100892.59
2022-10-13T05:23:42.913Z,100890.78
2022-10-13T05:28:46.685Z,100892.75
2022-10-13T05:33:50.381Z,100884.06
2022-10-13T05:38:55.386Z,100885.88
2022-10-13T05:44:01.500Z,100896.63
2022-10-13T05:49:04.687Z,100897.06
2022-10-13T05:54:12.452Z,100893.72
2022-10-13T05:59:17.406Z,100907.84
2022-10-13T06:04:31.891Z,100898.69
2022-10-13T06:09:37.929Z,100906.53
2022-10-13T06:14:40.994Z,100903.06
2022-10-13T06:19:45.711Z,100901.97
2022-10-13T06:24:49.002Z,100899.81
2022-10-13T06:29:51.801Z,100911.81
2022-10-13T06:34:54.727Z,100912.63
2022-10-13T06:39:57.529Z,100900.53
2022-10-13T06:45:00.439Z,100914.72
2022-10-13T06:50:03.547Z,100909.22
2022-10-13T06:55:06.540Z,100911.00
2022-10-13T07:00:09.947Z,100910.81
2022-10-13T07:05:12.740Z,100914.16
2022-10-13T07:10:15.679Z,100911.13
2022-10-13T07:15:18.496Z,100907.78
2022-10-13T07:20:22.678Z,100909.47
2022-10-13T07:25:25.883Z,100904.84
2022-10-13T07:30:28.678Z,100898.06
2022-10-13T07:35:31.456Z,100902.84
2022-10-13T07:40:34.607Z,100912.94
2022-10-13T07:45:37.385Z,100905.19
2022-10-13T07:50:40.125Z,100899.16
2022-10-13T07:55:42.712Z,100905.53
2022-10-13T08:00:45.547Z,100892.56
2022-10-13T08:05:48.340Z,100894.59
2022-10-13T08:10:51.468Z,100889.97
2022-10-13T08:15:54.087Z,100884.34
2022-10-13T08:21:23.976Z,100887.34
2022-10-13T08:26:27.056Z,100875.25
2022-10-13T08:31:30.262Z,100869.25
2022-10-13T08:36:33.168Z,100868.88
2022-10-13T08:41:46.050Z,100870.91
2022-10-13T08:47:09.334Z,100865.72
2022-10-13T08:52:26.973Z,100871.38
2022-10-13T08:57:30.624Z,100859.50
2022-10-13T09:02:33.244Z,100856.09
2022-10-13T09:07:37.173Z,100848.47
2022-10-13T09:12:39.992Z,100846.56
2022-10-13T09:17:42.845Z,100846.09
2022-10-13T09:23:00.011Z,100851.38
2022-10-13T09:28:09.524Z,100853.59
2022-10-13T09:33:12.440Z,100845.53
2022-10-13T09:38:21.446Z,100835.34
2022-10-13T09:43:31.843Z,100837.66
2022-10-13T09:48:36.705Z,100834.81
2022-10-13T09:53:40.940Z,100824.13
2022-10-13T09:59:14.632Z,100822.16
2022-10-13T10:04:23.106Z,100807.38
2022-10-13T10:09:41.552Z,100796.97
2022-10-13T10:14:44.464Z,100793.00
2022-10-13T10:19:59.261Z,100790.13
2022-10-13T10:25:40.011Z,100778.72
2022-10-13T10:30:50.111Z,100775.66
2022-10-13T10:35:54.739Z,100767.31
2022-10-13T10:40:57.527Z,100770.34
2022-10-13T10:46:00.892Z,100757.84
2022-10-13T10:51:06.605Z,100749.56
2022-10-13T10:56:09.680Z,100744.22
2022-10-13T11:01:12.548Z,100733.28
2022-10-13T11:06:18.518Z,100726.69
2022-10-13T11:11:32.298Z,100718.09
2022-10-13T11:16:40.988Z,100701.13
2022-10-13T11:21:52.976Z,100694.91
2022-10-13T11:26:56.002Z,100691.59
2022-10-13T11:31:58.897Z,100679.09
2022-10-13T11:37:03.105Z,100664.06
2022-10-13T11:42:12.315Z,100667.22
2022-10-13T11:47:55.918Z,100659.00
2022-10-13T11:53:11.594Z,100640.44
2022-10-13T11:58:17.518Z,100645.09
2022-10-13T12:03:31.916Z,100650.69
2022-10-13T12:08:36.125Z,100641.13
2022-10-13T12:13:39.272Z,100641.56
2022-10-13T12:18:41.949Z,100636.41
2022-10-13T12:23:45.086Z,100625.34
2022-10-13T12:29:05.264Z,100624.69
2022-10-13T12:34:25.636Z,100627.31
2022-10-13T12:39:30.946Z,100622.59
2022-10-13T12:44:34.087Z,100614.19
2022-10-13T12:49:37.222Z,100615.41
2022-10-13T12:54:47.310Z,100605.88
2022-10-13T12:59:50.139Z,100604.88
2022-10-13T13:04:53.154Z,100607.16
2022-10-13T13:10:20.018Z,100599.72
2022-10-13T13:15:26.096Z,100598.66
2022-10-13T13:20:34.780Z,100595.97
2022-10-13T13:25:37.653Z,100589.78
2022-10-13T13:30:41.098Z,100585.66
2022-10-13T13:35:43.875Z,100580.66
2022-10-13T13:40:46.655Z,100576.78
2022-10-13T13:45:49.544Z,100567.03
2022-10-13T13:50:52.334Z,100567.03
2022-10-13T13:55:55.240Z,100563.13
2022-10-13T14:00:59.753Z,100564.56
2022-10-13T14:06:02.417Z,100569.53
2022-10-13T14:11:08.509Z,100569.94
2022-10-13T14:16:16.056Z,100566.84
2022-10-13T14:21:18.903Z,100565.19
2022-10-13T14:26:21.739Z,100561.47
2022-10-13T14:31:24.866Z,100564.38
2022-10-13T14:36:28.297Z,100560.84
2022-10-13T14:41:31.149Z,100556.91
2022-10-13T14:46:33.970Z,100557.50
2022-10-13T14:51:36.735Z,100553.59
2022-10-13T14:56:39.526Z,100547.78
2022-10-13T15:01:42.749Z,100549.00
2022-10-13T15:06:45.530Z,100550.84
2022-10-13T15:11:48.348Z,100547.53
2022-10-13T15:16:51.535Z,100544.16
2022-10-13T15:21:54.429Z,100542.03
2022-10-13T15:26:57.263Z,100547.53
2022-10-13T15:32:11.362Z,100543.47
2022-10-13T15:37:14.252Z,100545.97
2022-10-13T15:42:17.138Z,100540.88
2022-10-13T15:47:19.969Z,100537.41
2022-10-13T15:52:22.989Z,100546.44
2022-10-13T15:57:26.062Z,100540.09
2022-10-13T16:02:28.888Z,100545.97
2022-10-13T16:07:32.519Z,100558.03
2022-10-13T16:12:35.669Z,100549.66
2022-10-13T16:17:38.544Z,100560.13
2022-10-13T16:22:41.272Z,100556.88
2022-10-13T16:27:44.712Z,100560.94
2022-10-13T16:32:47.686Z,100562.16
2022-10-13T16:37:50.860Z,100565.75
2022-10-13T16:42:53.896Z,100561.81
2022-10-13T16:47:57.378Z,100558.19
2022-10-13T16:53:00.148Z,100565.22
2022-10-13T16:58:03.013Z,100564.41
2022-10-13T17:03:06.777Z,100565.16
2022-10-13T17:08:09.608Z,100568.88
2022-10-13T17:13:12.524Z,100572.25
2022-10-13T17:18:15.335Z,100576.97
2022-10-13T17:23:18.303Z,100571.00
2022-10-13T17:28:21.834Z,100565.84
2022-10-13T17:33:25.081Z,100576.03
2022-10-13T17:38:28.798Z,100566.56
2022-10-13T17:43:32.970Z,100573.56
2022-10-13T17:48:35.772Z,100576.41
2022-10-13T17:53:39.914Z,100576.25
2022-10-13T17:58:43.252Z,100576.06
2022-10-13T18:03:47.802Z,100584.19
2022-10-13T18:08:51.598Z,100574.72
2022-10-13T18:13:54.601Z,100578.00
2022-10-13T18:18:57.499Z,100575.31
2022-10-13T18:24:02.109Z,100573.66
2022-10-13T18:29:06.442Z,100572.00
2022-10-13T18:34:14.130Z,100572.66
2022-10-13T18:39:19.663Z,100564.47
2022-10-13T18:44:24.218Z,100566.31
2022-10-13T18:49:33.573Z,100561.81
2022-10-13T18:54:36.364Z,100567.09
2022-10-13T18:59:39.023Z,100565.94
2022-10-13T19:04:41.857Z,100565.88
2022-10-13T19:09:45.079Z,100565.84
2022-10-13T19:14:47.835Z,100562.84
2022-10-13T19:19:50.874Z,100560.16
2022-10-13T19:24:53.798Z,100570.59
2022-10-13T19:29:56.591Z,100565.09
2022-10-13T19:34:59.449Z,100557.75
2022-10-13T19:40:02.528Z,100563.53
2022-10-13T19:45:06.053Z,100562.78
2022-10-13T19:50:08.915Z,100571.53
2022-10-13T19:55:11.769Z,100576.09
2022-10-13T20:00:15.381Z,100571.41
2022-10-13T20:05:20.928Z,100567.88
2022-10-13T20:10:27.523Z,100572.66
2022-10-13T20:15:30.272Z,100576.09
2022-10-13T20:20:35.173Z,100580.84
2022-10-13T20:25:38.289Z,100581.47
2022-10-13T20:30:41.062Z,100582.78
2022-10-13T20:35:44.146Z,100583.06
2022-10-13T20:40:47.971Z,100585.72
2022-10-13T20:45:59.770Z,100585.06
2022-10-13T20:51:04.431Z,100581.03
2022-10-13T20:56:08.868Z,100574.34
2022-10-13T21:01:12.398Z,100580.81
2022-10-13T21:06:15.307Z,100571.34
2022-10-13T21:11:20.201Z,100577.59
2022-10-13T21:16:27.322Z,100570.25
2022-10-13T21:21:33.367Z,100572.41
2022-10-13T21:26:37.151Z,100570.34
2022-10-13T21:31:39.956Z,100566.31
2022-10-13T21:36:44.576Z,100570.25
2022-10-13T21:41:47.452Z,100569.34
2022-10-13T21:46:50.305Z,100569.13
2022-10-13T21:51:53.086Z,100570.53
2022-10-13T21:56:55.974Z,100570.81
2022-10-13T22:01:58.772Z,100563.19
2022-10-13T22:07:01.736Z,100557.22
2022-10-13T22:12:05.399Z,100553.69
2022-10-13T22:17:08.555Z,100553.69
2022-10-13T22:22:11.389Z,100549.69
2022-10-13T22:27:14.244Z,100551.13
2022-10-13T22:32:17.090Z,100547.91
2022-10-13T22:37:20.279Z,100539.44
2022-10-13T22:42:23.755Z,100546.69
2022-10-13T22:47:26.667Z,100541.53
2022-10-13T22:52:29.240Z,100548.94
2022-10-13T22:57:32.098Z,100544.94
2022-10-13T23:02:34.926Z,100542.56
2022-10-13T23:07:37.689Z,100533.13
2022-10-13T23:12:40.475Z,100544.81
2022-10-13T23:17:43.326Z,100542.50
2022-10-13T23:22:46.069Z,100540.94
2022-10-13T23:27:48.869Z,100531.81
2022-10-13T23:32:51.714Z,100539.03
2022-10-13T23:37:54.625Z,100533.91
2022-10-13T23:42:57.248Z,100531.59
2022-10-13T23:48:00.002Z,100532.81
2022-10-13T23:53:03.397Z,100526.28
2022-10-13T23:58:06.683Z,100522.78
